Omer, Michigan
Current Conditions -  °F | °C
As of 12:32 PM on Tuesday 21 Oct 2014 (Local Time) from KIKW Reporting Station
Overcast Overcast  
Wind Chill: 40°   Ceiling: 2600
Heat Index: 46°   Visibility: 10mi
Dew Point: 35°   Wind: 10mph
Humidity: 66%   Direction: 350°N
Pressure: 30.13"   Gusts: NA
Location:  44.05°N, 83.85°W
Report Text: KIKW 211632Z AUTO 35009KT 330V030 10SM OVC026 08/02 A3013 RMK AO2 T00750016
Loading
Personal Weather Stations






























Interactive Weather Map
Tropical Storm Tracking
New forecast layout! Learn more

10-Day Weather Forecast

Advertisements
Track Severe Weather on mobile